sensor_id;sensor_type;location;lat;lon;timestamp;P1;durP1;ratioP1;P2;durP2;ratioP2
37647;SDS011;23490;53.656;10.076;2023-06-10T00:00:48;9.02;;;3.38;;
37647;SDS011;23490;53.656;10.076;2023-06-10T00:03:13;6.85;;;3.70;;
37647;SDS011;23490;53.656;10.076;2023-06-10T00:05:39;9.00;;;3.33;;
37647;SDS011;23490;53.656;10.076;2023-06-10T00:08:05;8.65;;;3.30;;
37647;SDS011;23490;53.656;10.076;2023-06-10T00:10:32;6.80;;;3.00;;
37647;SDS011;23490;53.656;10.076;2023-06-10T00:13:02;8.68;;;2.80;;
37647;SDS011;23490;53.656;10.076;2023-06-10T00:15:29;5.43;;;2.47;;
37647;SDS011;23490;53.656;10.076;2023-06-10T00:17:54;7.78;;;3.30;;
37647;SDS011;23490;53.656;10.076;2023-06-10T00:20:20;5.78;;;2.63;;
37647;SDS011;23490;53.656;10.076;2023-06-10T00:22:47;6.80;;;2.63;;
37647;SDS011;23490;53.656;10.076;2023-06-10T00:25:13;5.60;;;2.20;;
37647;SDS011;23490;53.656;10.076;2023-06-10T00:27:39;7.78;;;3.25;;
37647;SDS011;23490;53.656;10.076;2023-06-10T00:30:04;5.38;;;2.65;;
37647;SDS011;23490;53.656;10.076;2023-06-10T00:32:32;9.60;;;2.75;;
37647;SDS011;23490;53.656;10.076;2023-06-10T00:35:01;8.47;;;3.23;;
37647;SDS011;23490;53.656;10.076;2023-06-10T00:37:26;7.15;;;3.05;;
37647;SDS011;23490;53.656;10.076;2023-06-10T00:39:53;8.02;;;2.30;;
37647;SDS011;23490;53.656;10.076;2023-06-10T00:42:19;8.10;;;2.95;;
37647;SDS011;23490;53.656;10.076;2023-06-10T00:44:44;7.85;;;2.90;;
37647;SDS011;23490;53.656;10.076;2023-06-10T00:47:10;4.78;;;2.30;;
37647;SDS011;23490;53.656;10.076;2023-06-10T00:49:35;6.78;;;2.83;;
37647;SDS011;23490;53.656;10.076;2023-06-10T00:52:01;5.18;;;2.70;;
37647;SDS011;23490;53.656;10.076;2023-06-10T00:54:29;7.75;;;2.67;;
37647;SDS011;23490;53.656;10.076;2023-06-10T00:56:55;8.55;;;2.90;;
37647;SDS011;23490;53.656;10.076;2023-06-10T00:59:21;6.82;;;2.40;;
37647;SDS011;23490;53.656;10.076;2023-06-10T01:01:46;7.10;;;2.45;;
37647;SDS011;23490;53.656;10.076;2023-06-10T01:04:12;9.27;;;2.15;;
37647;SDS011;23490;53.656;10.076;2023-06-10T01:06:54;6.53;;;2.20;;
37647;SDS011;23490;53.656;10.076;2023-06-10T01:12:26;6.35;;;2.08;;
37647;SDS011;23490;53.656;10.076;2023-06-10T01:14:54;5.55;;;2.22;;
37647;SDS011;23490;53.656;10.076;2023-06-10T01:17:20;9.70;;;3.00;;
37647;SDS011;23490;53.656;10.076;2023-06-10T01:19:52;6.00;;;2.78;;
37647;SDS011;23490;53.656;10.076;2023-06-10T01:22:20;5.78;;;2.45;;
37647;SDS011;23490;53.656;10.076;2023-06-10T01:24:47;9.18;;;2.50;;
37647;SDS011;23490;53.656;10.076;2023-06-10T01:27:15;7.03;;;1.95;;
37647;SDS011;23490;53.656;10.076;2023-06-10T01:29:45;5.57;;;2.50;;
37647;SDS011;23490;53.656;10.076;2023-06-10T01:32:27;6.28;;;2.72;;
37647;SDS011;23490;53.656;10.076;2023-06-10T01:35:03;5.43;;;2.15;;
37647;SDS011;23490;53.656;10.076;2023-06-10T01:37:30;7.45;;;2.78;;
37647;SDS011;23490;53.656;10.076;2023-06-10T01:39:57;6.10;;;2.15;;
37647;SDS011;23490;53.656;10.076;2023-06-10T01:42:23;7.32;;;2.55;;
37647;SDS011;23490;53.656;10.076;2023-06-10T01:44:50;5.47;;;2.00;;
37647;SDS011;23490;53.656;10.076;2023-06-10T01:47:15;4.85;;;2.25;;
37647;SDS011;23490;53.656;10.076;2023-06-10T01:49:41;6.70;;;2.30;;
37647;SDS011;23490;53.656;10.076;2023-06-10T01:52:07;7.53;;;1.95;;
37647;SDS011;23490;53.656;10.076;2023-06-10T01:54:32;7.43;;;2.13;;
37647;SDS011;23490;53.656;10.076;2023-06-10T01:56:59;8.38;;;2.33;;
37647;SDS011;23490;53.656;10.076;2023-06-10T01:59:25;8.32;;;2.50;;
37647;SDS011;23490;53.656;10.076;2023-06-10T02:01:50;7.97;;;3.10;;
37647;SDS011;23490;53.656;10.076;2023-06-10T02:04:16;7.05;;;2.10;;
37647;SDS011;23490;53.656;10.076;2023-06-10T02:06:41;4.07;;;2.20;;
37647;SDS011;23490;53.656;10.076;2023-06-10T02:09:07;6.32;;;1.92;;
37647;SDS011;23490;53.656;10.076;2023-06-10T02:11:33;5.20;;;2.03;;
37647;SDS011;23490;53.656;10.076;2023-06-10T02:13:58;6.47;;;2.00;;
37647;SDS011;23490;53.656;10.076;2023-06-10T02:16:24;5.13;;;2.10;;
37647;SDS011;23490;53.656;10.076;2023-06-10T02:18:49;7.65;;;2.10;;
37647;SDS011;23490;53.656;10.076;2023-06-10T02:21:14;6.32;;;1.90;;
37647;SDS011;23490;53.656;10.076;2023-06-10T02:23:40;5.00;;;2.17;;
37647;SDS011;23490;53.656;10.076;2023-06-10T02:26:05;6.63;;;1.83;;
37647;SDS011;23490;53.656;10.076;2023-06-10T02:28:31;6.00;;;2.67;;
37647;SDS011;23490;53.656;10.076;2023-06-10T02:30:56;5.50;;;2.20;;
37647;SDS011;23490;53.656;10.076;2023-06-10T02:33:22;7.40;;;2.03;;
37647;SDS011;23490;53.656;10.076;2023-06-10T02:35:48;6.30;;;1.88;;
37647;SDS011;23490;53.656;10.076;2023-06-10T02:38:13;5.10;;;1.90;;
37647;SDS011;23490;53.656;10.076;2023-06-10T02:40:38;6.18;;;1.95;;
37647;SDS011;23490;53.656;10.076;2023-06-10T02:43:04;5.82;;;2.30;;
37647;SDS011;23490;53.656;10.076;2023-06-10T02:45:29;8.65;;;2.22;;
37647;SDS011;23490;53.656;10.076;2023-06-10T02:47:55;7.03;;;2.60;;
37647;SDS011;23490;53.656;10.076;2023-06-10T02:50:20;6.38;;;2.17;;
37647;SDS011;23490;53.656;10.076;2023-06-10T02:52:45;6.18;;;2.00;;
37647;SDS011;23490;53.656;10.076;2023-06-10T02:55:11;5.07;;;1.92;;
37647;SDS011;23490;53.656;10.076;2023-06-10T02:57:36;4.45;;;2.03;;
37647;SDS011;23490;53.656;10.076;2023-06-10T03:00:02;8.38;;;1.75;;
37647;SDS011;23490;53.656;10.076;2023-06-10T03:04:57;6.82;;;1.85;;
37647;SDS011;23490;53.656;10.076;2023-06-10T03:07:22;6.50;;;2.10;;
37647;SDS011;23490;53.656;10.076;2023-06-10T03:09:48;7.20;;;2.13;;
37647;SDS011;23490;53.656;10.076;2023-06-10T03:12:14;4.80;;;1.80;;
37647;SDS011;23490;53.656;10.076;2023-06-10T03:14:40;6.00;;;2.30;;
37647;SDS011;23490;53.656;10.076;2023-06-10T03:17:06;7.15;;;2.20;;
37647;SDS011;23490;53.656;10.076;2023-06-10T03:19:33;5.85;;;2.00;;
37647;SDS011;23490;53.656;10.076;2023-06-10T03:22:09;4.63;;;1.90;;
37647;SDS011;23490;53.656;10.076;2023-06-10T03:24:36;4.75;;;1.98;;
37647;SDS011;23490;53.656;10.076;2023-06-10T03:27:07;5.72;;;2.13;;
37647;SDS011;23490;53.656;10.076;2023-06-10T03:29:33;8.73;;;2.38;;
37647;SDS011;23490;53.656;10.076;2023-06-10T03:31:58;4.90;;;1.77;;
37647;SDS011;23490;53.656;10.076;2023-06-10T03:34:24;6.13;;;1.88;;
37647;SDS011;23490;53.656;10.076;2023-06-10T03:36:49;3.42;;;1.80;;
37647;SDS011;23490;53.656;10.076;2023-06-10T03:39:15;3.20;;;1.90;;
37647;SDS011;23490;53.656;10.076;2023-06-10T03:41:40;6.00;;;2.65;;
37647;SDS011;23490;53.656;10.076;2023-06-10T03:44:05;5.55;;;1.85;;
37647;SDS011;23490;53.656;10.076;2023-06-10T03:46:31;3.88;;;2.05;;
37647;SDS011;23490;53.656;10.076;2023-06-10T03:48:56;7.20;;;2.40;;
37647;SDS011;23490;53.656;10.076;2023-06-10T03:51:21;7.78;;;2.05;;
37647;SDS011;23490;53.656;10.076;2023-06-10T03:53:47;4.70;;;1.90;;
37647;SDS011;23490;53.656;10.076;2023-06-10T03:56:13;3.67;;;1.77;;
37647;SDS011;23490;53.656;10.076;2023-06-10T03:58:38;5.00;;;2.30;;
37647;SDS011;23490;53.656;10.076;2023-06-10T04:01:03;5.55;;;2.42;;
37647;SDS011;23490;53.656;10.076;2023-06-10T04:03:29;5.18;;;2.08;;
37647;SDS011;23490;53.656;10.076;2023-06-10T04:05:54;8.10;;;2.00;;
37647;SDS011;23490;53.656;10.076;2023-06-10T04:08:19;5.00;;;2.13;;
37647;SDS011;23490;53.656;10.076;2023-06-10T04:10:45;5.30;;;2.03;;
37647;SDS011;23490;53.656;10.076;2023-06-10T04:13:11;6.18;;;1.90;;
37647;SDS011;23490;53.656;10.076;2023-06-10T04:15:36;6.55;;;2.22;;
37647;SDS011;23490;53.656;10.076;2023-06-10T04:18:01;5.45;;;1.98;;
37647;SDS011;23490;53.656;10.076;2023-06-10T04:20:27;5.93;;;2.42;;
37647;SDS011;23490;53.656;10.076;2023-06-10T04:22:52;5.93;;;2.30;;
37647;SDS011;23490;53.656;10.076;2023-06-10T04:25:18;5.35;;;1.85;;
37647;SDS011;23490;53.656;10.076;2023-06-10T04:27:44;7.55;;;2.35;;
37647;SDS011;23490;53.656;10.076;2023-06-10T04:30:09;4.95;;;1.88;;
37647;SDS011;23490;53.656;10.076;2023-06-10T04:32:35;4.78;;;2.00;;
37647;SDS011;23490;53.656;10.076;2023-06-10T04:35:00;4.50;;;2.03;;
37647;SDS011;23490;53.656;10.076;2023-06-10T04:37:26;9.63;;;2.38;;
37647;SDS011;23490;53.656;10.076;2023-06-10T04:39:51;7.50;;;2.63;;
37647;SDS011;23490;53.656;10.076;2023-06-10T04:42:16;5.93;;;2.30;;
37647;SDS011;23490;53.656;10.076;2023-06-10T04:44:41;7.38;;;2.08;;
37647;SDS011;23490;53.656;10.076;2023-06-10T04:47:08;9.13;;;2.53;;
37647;SDS011;23490;53.656;10.076;2023-06-10T04:49:34;6.80;;;2.50;;
37647;SDS011;23490;53.656;10.076;2023-06-10T04:52:00;7.07;;;2.67;;
37647;SDS011;23490;53.656;10.076;2023-06-10T04:54:25;6.88;;;2.65;;
37647;SDS011;23490;53.656;10.076;2023-06-10T04:56:51;9.02;;;2.58;;
37647;SDS011;23490;53.656;10.076;2023-06-10T04:59:16;6.97;;;2.85;;
37647;SDS011;23490;53.656;10.076;2023-06-10T05:01:41;10.27;;;2.38;;
37647;SDS011;23490;53.656;10.076;2023-06-10T05:04:06;5.70;;;2.13;;
37647;SDS011;23490;53.656;10.076;2023-06-10T05:06:32;6.78;;;1.90;;
37647;SDS011;23490;53.656;10.076;2023-06-10T05:08:57;4.47;;;2.25;;
37647;SDS011;23490;53.656;10.076;2023-06-10T05:11:22;8.20;;;2.55;;
37647;SDS011;23490;53.656;10.076;2023-06-10T05:13:48;5.10;;;1.75;;
37647;SDS011;23490;53.656;10.076;2023-06-10T05:16:13;7.47;;;2.20;;
37647;SDS011;23490;53.656;10.076;2023-06-10T05:18:40;5.68;;;1.95;;
37647;SDS011;23490;53.656;10.076;2023-06-10T05:21:05;6.03;;;1.98;;
37647;SDS011;23490;53.656;10.076;2023-06-10T05:23:31;8.90;;;1.90;;
37647;SDS011;23490;53.656;10.076;2023-06-10T05:25:56;5.95;;;2.10;;
37647;SDS011;23490;53.656;10.076;2023-06-10T05:28:21;8.23;;;2.72;;
37647;SDS011;23490;53.656;10.076;2023-06-10T05:30:47;8.90;;;2.30;;
37647;SDS011;23490;53.656;10.076;2023-06-10T05:33:12;6.22;;;1.60;;
37647;SDS011;23490;53.656;10.076;2023-06-10T05:35:38;6.97;;;1.63;;
37647;SDS011;23490;53.656;10.076;2023-06-10T05:38:03;3.55;;;1.45;;
37647;SDS011;23490;53.656;10.076;2023-06-10T05:40:28;5.25;;;1.98;;
37647;SDS011;23490;53.656;10.076;2023-06-10T05:42:54;5.85;;;1.50;;
37647;SDS011;23490;53.656;10.076;2023-06-10T05:45:19;7.93;;;2.13;;
37647;SDS011;23490;53.656;10.076;2023-06-10T05:47:44;4.80;;;1.30;;
37647;SDS011;23490;53.656;10.076;2023-06-10T05:50:10;6.88;;;1.98;;
37647;SDS011;23490;53.656;10.076;2023-06-10T05:52:35;7.93;;;1.70;;
37647;SDS011;23490;53.656;10.076;2023-06-10T05:55:04;6.30;;;1.40;;
37647;SDS011;23490;53.656;10.076;2023-06-10T05:57:30;5.90;;;1.45;;
37647;SDS011;23490;53.656;10.076;2023-06-10T05:59:55;8.25;;;1.63;;
37647;SDS011;23490;53.656;10.076;2023-06-10T06:02:20;5.30;;;1.50;;
37647;SDS011;23490;53.656;10.076;2023-06-10T06:04:46;6.20;;;1.90;;
37647;SDS011;23490;53.656;10.076;2023-06-10T06:07:11;4.05;;;1.40;;
37647;SDS011;23490;53.656;10.076;2023-06-10T06:09:37;8.60;;;1.67;;
37647;SDS011;23490;53.656;10.076;2023-06-10T06:12:02;5.82;;;1.70;;
37647;SDS011;23490;53.656;10.076;2023-06-10T06:14:30;6.68;;;2.03;;
37647;SDS011;23490;53.656;10.076;2023-06-10T06:16:56;7.18;;;2.00;;
37647;SDS011;23490;53.656;10.076;2023-06-10T06:19:21;5.88;;;1.30;;
37647;SDS011;23490;53.656;10.076;2023-06-10T06:21:46;4.78;;;1.50;;
37647;SDS011;23490;53.656;10.076;2023-06-10T06:24:12;3.22;;;1.55;;
37647;SDS011;23490;53.656;10.076;2023-06-10T06:26:37;6.32;;;1.88;;
37647;SDS011;23490;53.656;10.076;2023-06-10T06:29:02;5.63;;;1.50;;
37647;SDS011;23490;53.656;10.076;2023-06-10T06:31:28;5.47;;;1.55;;
37647;SDS011;23490;53.656;10.076;2023-06-10T06:33:53;8.07;;;1.83;;
37647;SDS011;23490;53.656;10.076;2023-06-10T06:36:18;4.82;;;1.77;;
37647;SDS011;23490;53.656;10.076;2023-06-10T06:38:44;3.58;;;1.35;;
37647;SDS011;23490;53.656;10.076;2023-06-10T06:41:09;6.93;;;1.63;;
37647;SDS011;23490;53.656;10.076;2023-06-10T06:43:34;5.25;;;1.60;;
37647;SDS011;23490;53.656;10.076;2023-06-10T06:46:00;4.93;;;1.48;;
37647;SDS011;23490;53.656;10.076;2023-06-10T06:48:25;6.72;;;1.58;;
37647;SDS011;23490;53.656;10.076;2023-06-10T06:50:51;3.22;;;1.25;;
37647;SDS011;23490;53.656;10.076;2023-06-10T06:53:16;4.75;;;1.63;;
37647;SDS011;23490;53.656;10.076;2023-06-10T06:55:41;2.80;;;1.50;;
37647;SDS011;23490;53.656;10.076;2023-06-10T06:58:07;7.07;;;2.80;;
37647;SDS011;23490;53.656;10.076;2023-06-10T07:00:32;5.22;;;1.60;;
37647;SDS011;23490;53.656;10.076;2023-06-10T07:02:57;7.07;;;1.75;;
37647;SDS011;23490;53.656;10.076;2023-06-10T07:05:24;8.30;;;2.15;;
37647;SDS011;23490;53.656;10.076;2023-06-10T07:07:52;6.68;;;1.50;;
37647;SDS011;23490;53.656;10.076;2023-06-10T07:10:20;6.35;;;1.95;;
37647;SDS011;23490;53.656;10.076;2023-06-10T07:12:49;6.00;;;1.42;;
37647;SDS011;23490;53.656;10.076;2023-06-10T07:15:15;6.55;;;1.60;;
37647;SDS011;23490;53.656;10.076;2023-06-10T07:17:41;3.92;;;1.20;;
37647;SDS011;23490;53.656;10.076;2023-06-10T07:20:06;4.90;;;1.52;;
37647;SDS011;23490;53.656;10.076;2023-06-10T07:22:32;3.92;;;2.08;;
37647;SDS011;23490;53.656;10.076;2023-06-10T07:24:57;7.30;;;1.70;;
37647;SDS011;23490;53.656;10.076;2023-06-10T07:27:23;4.93;;;1.70;;
37647;SDS011;23490;53.656;10.076;2023-06-10T07:29:48;5.25;;;1.85;;
37647;SDS011;23490;53.656;10.076;2023-06-10T07:32:13;7.97;;;2.47;;
37647;SDS011;23490;53.656;10.076;2023-06-10T07:34:39;8.38;;;1.63;;
37647;SDS011;23490;53.656;10.076;2023-06-10T07:37:04;3.67;;;1.20;;
37647;SDS011;23490;53.656;10.076;2023-06-10T07:39:30;5.53;;;1.23;;
37647;SDS011;23490;53.656;10.076;2023-06-10T07:41:55;5.22;;;2.03;;
37647;SDS011;23490;53.656;10.076;2023-06-10T07:44:22;7.32;;;2.13;;
37647;SDS011;23490;53.656;10.076;2023-06-10T07:46:48;3.83;;;1.77;;
37647;SDS011;23490;53.656;10.076;2023-06-10T07:49:13;7.80;;;2.15;;
37647;SDS011;23490;53.656;10.076;2023-06-10T07:51:38;5.18;;;1.83;;
37647;SDS011;23490;53.656;10.076;2023-06-10T07:54:05;4.30;;;1.98;;
37647;SDS011;23490;53.656;10.076;2023-06-10T07:56:30;6.65;;;2.05;;
37647;SDS011;23490;53.656;10.076;2023-06-10T07:58:56;3.90;;;1.50;;
37647;SDS011;23490;53.656;10.076;2023-06-10T08:01:22;5.40;;;1.80;;
37647;SDS011;23490;53.656;10.076;2023-06-10T08:03:47;6.47;;;1.80;;
37647;SDS011;23490;53.656;10.076;2023-06-10T08:06:13;5.90;;;1.98;;
37647;SDS011;23490;53.656;10.076;2023-06-10T08:08:38;4.03;;;1.73;;
37647;SDS011;23490;53.656;10.076;2023-06-10T08:11:07;6.10;;;2.17;;
37647;SDS011;23490;53.656;10.076;2023-06-10T08:13:33;7.05;;;1.77;;
37647;SDS011;23490;53.656;10.076;2023-06-10T08:15:58;4.28;;;1.55;;
37647;SDS011;23490;53.656;10.076;2023-06-10T08:18:24;6.18;;;1.90;;
37647;SDS011;23490;53.656;10.076;2023-06-10T08:20:49;9.20;;;2.05;;
37647;SDS011;23490;53.656;10.076;2023-06-10T08:23:15;5.75;;;1.95;;
37647;SDS011;23490;53.656;10.076;2023-06-10T08:25:40;5.88;;;2.05;;
37647;SDS011;23490;53.656;10.076;2023-06-10T08:28:05;5.05;;;1.60;;
37647;SDS011;23490;53.656;10.076;2023-06-10T08:30:30;4.20;;;1.90;;
37647;SDS011;23490;53.656;10.076;2023-06-10T08:32:56;4.47;;;1.52;;
37647;SDS011;23490;53.656;10.076;2023-06-10T08:35:21;6.18;;;1.85;;
37647;SDS011;23490;53.656;10.076;2023-06-10T08:37:47;5.72;;;2.08;;
37647;SDS011;23490;53.656;10.076;2023-06-10T08:40:12;7.20;;;1.90;;
37647;SDS011;23490;53.656;10.076;2023-06-10T08:42:43;6.85;;;2.08;;
37647;SDS011;23490;53.656;10.076;2023-06-10T08:45:16;8.35;;;2.13;;
37647;SDS011;23490;53.656;10.076;2023-06-10T08:47:44;5.00;;;1.80;;
37647;SDS011;23490;53.656;10.076;2023-06-10T08:50:11;5.80;;;1.63;;
37647;SDS011;23490;53.656;10.076;2023-06-10T08:52:37;7.88;;;2.28;;
37647;SDS011;23490;53.656;10.076;2023-06-10T08:55:12;6.93;;;2.15;;
37647;SDS011;23490;53.656;10.076;2023-06-10T08:57:40;5.40;;;2.28;;
37647;SDS011;23490;53.656;10.076;2023-06-10T09:00:07;7.95;;;2.20;;
37647;SDS011;23490;53.656;10.076;2023-06-10T09:02:33;4.78;;;2.10;;
37647;SDS011;23490;53.656;10.076;2023-06-10T09:05:00;8.32;;;2.45;;
37647;SDS011;23490;53.656;10.076;2023-06-10T09:07:26;4.40;;;2.00;;
37647;SDS011;23490;53.656;10.076;2023-06-10T09:09:52;5.13;;;2.25;;
37647;SDS011;23490;53.656;10.076;2023-06-10T09:12:19;5.35;;;2.15;;
37647;SDS011;23490;53.656;10.076;2023-06-10T09:14:45;5.65;;;1.83;;
37647;SDS011;23490;53.656;10.076;2023-06-10T09:17:10;7.43;;;2.05;;
37647;SDS011;23490;53.656;10.076;2023-06-10T09:19:36;5.97;;;2.17;;
37647;SDS011;23490;53.656;10.076;2023-06-10T09:22:03;6.68;;;1.80;;
37647;SDS011;23490;53.656;10.076;2023-06-10T09:24:29;5.25;;;2.55;;
37647;SDS011;23490;53.656;10.076;2023-06-10T09:27:15;3.85;;;2.08;;
37647;SDS011;23490;53.656;10.076;2023-06-10T09:29:55;6.20;;;2.33;;
37647;SDS011;23490;53.656;10.076;2023-06-10T09:32:22;6.30;;;2.40;;
37647;SDS011;23490;53.656;10.076;2023-06-10T09:34:48;5.65;;;2.40;;
37647;SDS011;23490;53.656;10.076;2023-06-10T09:37:25;5.93;;;2.53;;
37647;SDS011;23490;53.656;10.076;2023-06-10T09:40:00;5.10;;;2.03;;
37647;SDS011;23490;53.656;10.076;2023-06-10T09:42:28;7.10;;;2.15;;
37647;SDS011;23490;53.656;10.076;2023-06-10T09:44:57;4.57;;;2.10;;
37647;SDS011;23490;53.656;10.076;2023-06-10T09:47:22;4.97;;;2.25;;
37647;SDS011;23490;53.656;10.076;2023-06-10T09:49:51;5.07;;;2.17;;
37647;SDS011;23490;53.656;10.076;2023-06-10T09:52:21;9.25;;;2.22;;
37647;SDS011;23490;53.656;10.076;2023-06-10T09:54:48;7.18;;;2.33;;
37647;SDS011;23490;53.656;10.076;2023-06-10T09:57:14;4.97;;;1.95;;
37647;SDS011;23490;53.656;10.076;2023-06-10T09:59:42;5.15;;;1.98;;
37647;SDS011;23490;53.656;10.076;2023-06-10T10:02:13;5.97;;;2.42;;
37647;SDS011;23490;53.656;10.076;2023-06-10T10:04:39;9.10;;;2.50;;
37647;SDS011;23490;53.656;10.076;2023-06-10T10:07:04;6.60;;;2.65;;
37647;SDS011;23490;53.656;10.076;2023-06-10T10:09:32;6.70;;;2.42;;
37647;SDS011;23490;53.656;10.076;2023-06-10T10:11:57;6.82;;;2.15;;
37647;SDS011;23490;53.656;10.076;2023-06-10T10:14:25;5.30;;;2.05;;
37647;SDS011;23490;53.656;10.076;2023-06-10T10:16:54;7.75;;;2.10;;
37647;SDS011;23490;53.656;10.076;2023-06-10T10:19:22;5.63;;;2.67;;
37647;SDS011;23490;53.656;10.076;2023-06-10T10:21:54;5.57;;;2.20;;
37647;SDS011;23490;53.656;10.076;2023-06-10T10:24:23;6.55;;;2.67;;
37647;SDS011;23490;53.656;10.076;2023-06-10T10:26:56;4.68;;;2.30;;
37647;SDS011;23490;53.656;10.076;2023-06-10T10:29:30;6.50;;;2.35;;
37647;SDS011;23490;53.656;10.076;2023-06-10T10:32:01;5.82;;;2.25;;
37647;SDS011;23490;53.656;10.076;2023-06-10T10:37:26;5.20;;;2.30;;
37647;SDS011;23490;53.656;10.076;2023-06-10T10:39:52;5.57;;;2.20;;
37647;SDS011;23490;53.656;10.076;2023-06-10T10:42:17;6.13;;;2.60;;
37647;SDS011;23490;53.656;10.076;2023-06-10T10:44:43;6.78;;;2.40;;
37647;SDS011;23490;53.656;10.076;2023-06-10T10:47:09;5.15;;;2.30;;
37647;SDS011;23490;53.656;10.076;2023-06-10T10:49:35;6.72;;;2.22;;
37647;SDS011;23490;53.656;10.076;2023-06-10T10:52:03;6.13;;;1.88;;
37647;SDS011;23490;53.656;10.076;2023-06-10T10:54:35;6.05;;;2.35;;
37647;SDS011;23490;53.656;10.076;2023-06-10T10:59:45;6.53;;;2.05;;
37647;SDS011;23490;53.656;10.076;2023-06-10T11:04:48;6.70;;;2.08;;
37647;SDS011;23490;53.656;10.076;2023-06-10T11:07:14;4.95;;;1.88;;
37647;SDS011;23490;53.656;10.076;2023-06-10T11:09:58;4.45;;;1.95;;
37647;SDS011;23490;53.656;10.076;2023-06-10T11:12:25;8.75;;;2.40;;
37647;SDS011;23490;53.656;10.076;2023-06-10T11:14:54;7.00;;;2.00;;
37647;SDS011;23490;53.656;10.076;2023-06-10T11:17:20;6.35;;;2.45;;
37647;SDS011;23490;53.656;10.076;2023-06-10T11:19:46;7.53;;;2.35;;
37647;SDS011;23490;53.656;10.076;2023-06-10T11:22:16;7.57;;;3.03;;
37647;SDS011;23490;53.656;10.076;2023-06-10T11:24:46;7.25;;;2.45;;
37647;SDS011;23490;53.656;10.076;2023-06-10T11:27:22;5.47;;;2.10;;
37647;SDS011;23490;53.656;10.076;2023-06-10T11:30:17;5.78;;;2.40;;
37647;SDS011;23490;53.656;10.076;2023-06-10T11:32:44;5.13;;;2.17;;
37647;SDS011;23490;53.656;10.076;2023-06-10T11:35:10;7.03;;;2.22;;
37647;SDS011;23490;53.656;10.076;2023-06-10T11:37:35;4.50;;;2.55;;
37647;SDS011;23490;53.656;10.076;2023-06-10T11:40:01;3.95;;;2.10;;
37647;SDS011;23490;53.656;10.076;2023-06-10T11:42:27;4.88;;;2.53;;
37647;SDS011;23490;53.656;10.076;2023-06-10T11:44:53;6.90;;;2.75;;
37647;SDS011;23490;53.656;10.076;2023-06-10T11:47:19;6.72;;;3.03;;
37647;SDS011;23490;53.656;10.076;2023-06-10T11:49:55;5.22;;;2.47;;
37647;SDS011;23490;53.656;10.076;2023-06-10T11:52:28;5.82;;;2.80;;
37647;SDS011;23490;53.656;10.076;2023-06-10T11:55:04;6.82;;;2.58;;
37647;SDS011;23490;53.656;10.076;2023-06-10T11:57:33;7.32;;;2.55;;
37647;SDS011;23490;53.656;10.076;2023-06-10T12:00:03;7.10;;;2.40;;
37647;SDS011;23490;53.656;10.076;2023-06-10T12:02:31;5.45;;;2.30;;
37647;SDS011;23490;53.656;10.076;2023-06-10T12:05:09;5.00;;;2.15;;
37647;SDS011;23490;53.656;10.076;2023-06-10T12:07:35;4.68;;;2.20;;
37647;SDS011;23490;53.656;10.076;2023-06-10T12:10:00;7.78;;;3.05;;
37647;SDS011;23490;53.656;10.076;2023-06-10T12:12:25;5.47;;;2.13;;
37647;SDS011;23490;53.656;10.076;2023-06-10T12:20:02;5.25;;;2.28;;
37647;SDS011;23490;53.656;10.076;2023-06-10T12:22:36;5.97;;;2.05;;
37647;SDS011;23490;53.656;10.076;2023-06-10T12:25:03;5.43;;;2.42;;
37647;SDS011;23490;53.656;10.076;2023-06-10T12:27:32;4.90;;;2.28;;
37647;SDS011;23490;53.656;10.076;2023-06-10T12:29:59;5.97;;;2.63;;
37647;SDS011;23490;53.656;10.076;2023-06-10T12:32:40;4.38;;;2.15;;
37647;SDS011;23490;53.656;10.076;2023-06-10T12:35:07;7.20;;;2.78;;
37647;SDS011;23490;53.656;10.076;2023-06-10T12:37:33;7.10;;;2.40;;
37647;SDS011;23490;53.656;10.076;2023-06-10T12:39:59;7.13;;;2.67;;
37647;SDS011;23490;53.656;10.076;2023-06-10T12:44:53;6.40;;;2.50;;
37647;SDS011;23490;53.656;10.076;2023-06-10T12:47:19;5.80;;;2.25;;
37647;SDS011;23490;53.656;10.076;2023-06-10T12:49:45;6.90;;;2.72;;
37647;SDS011;23490;53.656;10.076;2023-06-10T12:52:10;5.93;;;2.20;;
37647;SDS011;23490;53.656;10.076;2023-06-10T12:54:35;7.25;;;2.28;;
37647;SDS011;23490;53.656;10.076;2023-06-10T12:57:01;5.45;;;2.20;;
37647;SDS011;23490;53.656;10.076;2023-06-10T12:59:27;7.82;;;2.70;;
37647;SDS011;23490;53.656;10.076;2023-06-10T13:01:52;7.00;;;2.30;;
37647;SDS011;23490;53.656;10.076;2023-06-10T13:04:18;7.93;;;2.60;;
37647;SDS011;23490;53.656;10.076;2023-06-10T13:06:44;6.15;;;2.42;;
37647;SDS011;23490;53.656;10.076;2023-06-10T13:09:12;5.47;;;2.55;;
37647;SDS011;23490;53.656;10.076;2023-06-10T13:11:38;6.07;;;1.80;;
37647;SDS011;23490;53.656;10.076;2023-06-10T13:14:04;5.57;;;2.20;;
37647;SDS011;23490;53.656;10.076;2023-06-10T13:16:30;5.70;;;2.40;;
37647;SDS011;23490;53.656;10.076;2023-06-10T13:18:56;5.75;;;2.50;;
37647;SDS011;23490;53.656;10.076;2023-06-10T13:21:22;6.15;;;2.38;;
37647;SDS011;23490;53.656;10.076;2023-06-10T13:23:47;5.32;;;2.28;;
37647;SDS011;23490;53.656;10.076;2023-06-10T13:26:13;4.63;;;2.10;;
37647;SDS011;23490;53.656;10.076;2023-06-10T13:28:41;7.40;;;2.45;;
37647;SDS011;23490;53.656;10.076;2023-06-10T13:31:06;6.97;;;2.47;;
37647;SDS011;23490;53.656;10.076;2023-06-10T13:33:32;6.13;;;2.33;;
37647;SDS011;23490;53.656;10.076;2023-06-10T13:35:57;6.28;;;2.17;;
37647;SDS011;23490;53.656;10.076;2023-06-10T13:38:22;6.05;;;1.90;;
37647;SDS011;23490;53.656;10.076;2023-06-10T13:40:48;4.75;;;1.95;;
37647;SDS011;23490;53.656;10.076;2023-06-10T13:43:13;4.72;;;2.13;;
37647;SDS011;23490;53.656;10.076;2023-06-10T13:45:39;4.00;;;2.08;;
37647;SDS011;23490;53.656;10.076;2023-06-10T13:48:04;7.45;;;2.13;;
37647;SDS011;23490;53.656;10.076;2023-06-10T13:50:30;5.15;;;1.90;;
37647;SDS011;23490;53.656;10.076;2023-06-10T13:52:56;6.05;;;2.10;;
37647;SDS011;23490;53.656;10.076;2023-06-10T13:55:22;4.00;;;1.98;;
37647;SDS011;23490;53.656;10.076;2023-06-10T13:57:47;7.72;;;2.13;;
37647;SDS011;23490;53.656;10.076;2023-06-10T14:00:12;6.35;;;2.30;;
37647;SDS011;23490;53.656;10.076;2023-06-10T14:02:38;4.78;;;1.80;;
37647;SDS011;23490;53.656;10.076;2023-06-10T14:05:04;6.97;;;1.90;;
37647;SDS011;23490;53.656;10.076;2023-06-10T14:07:30;4.47;;;1.80;;
37647;SDS011;23490;53.656;10.076;2023-06-10T14:09:55;5.40;;;2.38;;
37647;SDS011;23490;53.656;10.076;2023-06-10T14:12:21;7.18;;;2.60;;
37647;SDS011;23490;53.656;10.076;2023-06-10T14:14:47;7.38;;;2.22;;
37647;SDS011;23490;53.656;10.076;2023-06-10T14:17:12;6.97;;;2.40;;
37647;SDS011;23490;53.656;10.076;2023-06-10T14:19:37;6.75;;;2.10;;
37647;SDS011;23490;53.656;10.076;2023-06-10T14:22:05;5.93;;;2.47;;
37647;SDS011;23490;53.656;10.076;2023-06-10T14:24:31;9.98;;;2.78;;
37647;SDS011;23490;53.656;10.076;2023-06-10T14:26:57;6.03;;;2.53;;
37647;SDS011;23490;53.656;10.076;2023-06-10T14:29:23;7.28;;;2.20;;
37647;SDS011;23490;53.656;10.076;2023-06-10T14:31:48;6.40;;;2.38;;
37647;SDS011;23490;53.656;10.076;2023-06-10T14:34:14;5.93;;;2.60;;
37647;SDS011;23490;53.656;10.076;2023-06-10T14:36:39;7.75;;;3.10;;
37647;SDS011;23490;53.656;10.076;2023-06-10T14:39:05;10.13;;;3.03;;
37647;SDS011;23490;53.656;10.076;2023-06-10T14:41:30;7.50;;;3.17;;
37647;SDS011;23490;53.656;10.076;2023-06-10T14:43:56;6.82;;;2.92;;
37647;SDS011;23490;53.656;10.076;2023-06-10T14:46:21;5.80;;;2.53;;
37647;SDS011;23490;53.656;10.076;2023-06-10T14:48:47;7.57;;;2.85;;
37647;SDS011;23490;53.656;10.076;2023-06-10T14:51:12;5.82;;;2.33;;